Terminal Aerodrome Forecast
Issued by NWS

Home | Current Version | Previous Version | Text Only | Print | Product List | Glossary On
Versions: 1 2 3 4 5 6 7 8 9 10 11 12 13 14 15 16 17 18 19 20 21 22 23 24 25 26 27 28 29 30 31
000
FTAK31 PAFA 210534
TAFATA
TAF
PATA 210534Z 2106/2206 VRB03KT P6SM FEW025 OVC070
      TEMPO 2109/2111 BKN006
     FM211100 VRB03KT 3SM BR OVC005
     FM211900 25005KT P6SM SCT020 BKN040=

USA.gov is the U.S. government's official web portal to all federal, state and local government web resources and services.